Time;durP1;ratioP1;P1;durP2;ratioP2;P2;SDS_P1;SDS_P2;PMS_P1;PMS_P2;Temp;Humidity;BMP_temperature;BMP_pressure;BME280_temperature;BME280_humidity;BME280_pressure;Samples;Min_cycle;Max_cycle;Signal;HPM_P1;HPM_P2
2021/06/12 00:02:20;;;;;;;10.77;6.40;;;;;;;20.32;65.09;101640.97;5038951;28;20112;-71
2021/06/12 00:04:45;;;;;;;11.93;6.75;;;;;;;20.32;65.18;101640.16;5045201;28;20041;-71
2021/06/12 00:07:11;;;;;;;9.75;5.90;;;;;;;20.30;65.14;101634.31;5040884;28;20047;-71
2021/06/12 00:09:36;;;;;;;13.02;6.43;;;;;;;20.25;65.49;101628.81;5036167;28;20116;-71
2021/06/12 00:12:03;;;;;;;10.90;6.57;;;;;;;20.20;65.75;101632.06;5039945;28;20485;-71
2021/06/12 00:14:28;;;;;;;11.00;7.22;;;;;;;20.18;65.59;101621.72;5039418;28;20095;-71
2021/06/12 00:16:54;;;;;;;10.70;7.00;;;;;;;20.16;65.72;101623.75;5044335;28;20033;-71
2021/06/12 00:19:19;;;;;;;15.15;7.80;;;;;;;20.14;65.72;101617.06;5040785;28;20024;-71
2021/06/12 00:21:45;;;;;;;13.50;7.55;;;;;;;20.10;66.07;101621.09;5039334;28;20047;-71
2021/06/12 00:24:11;;;;;;;14.68;7.20;;;;;;;20.07;66.31;101618.88;5045663;28;20553;-72
2021/06/12 00:26:36;;;;;;;11.00;6.68;;;;;;;20.03;66.28;101616.63;5043672;28;20119;-71
2021/06/12 00:29:03;;;;;;;12.18;6.65;;;;;;;19.98;66.58;101608.50;5045048;28;20036;-71
2021/06/12 00:31:29;;;;;;;10.85;6.57;;;;;;;19.88;66.96;101617.81;5046483;28;20070;-71
2021/06/12 00:33:55;;;;;;;10.20;7.18;;;;;;;19.84;67.05;101610.31;5042691;28;20025;-71
2021/06/12 00:36:21;;;;;;;14.15;7.20;;;;;;;19.84;66.75;101614.75;5044060;28;20032;-71
2021/06/12 00:38:47;;;;;;;12.38;7.00;;;;;;;19.77;66.85;101612.09;5049860;28;20054;-71
2021/06/12 00:41:13;;;;;;;12.50;7.18;;;;;;;19.76;66.92;101607.03;5050799;28;20416;-71
2021/06/12 00:43:41;;;;;;;16.50;7.82;;;;;;;19.76;66.97;101607.03;5047810;28;20037;-71
2021/06/12 00:46:07;;;;;;;11.98;7.38;;;;;;;19.76;67.06;101604.41;5047596;28;20481;-71
2021/06/12 00:48:32;;;;;;;15.45;7.50;;;;;;;19.75;66.89;101598.31;5044244;28;20048;-71
2021/06/12 00:50:58;;;;;;;10.88;6.57;;;;;;;19.74;67.02;101601.16;5039318;28;20114;-71
2021/06/12 00:53:42;;;;;;;11.38;7.35;;;;;;;19.74;67.17;101598.53;5044871;28;20037;-71
2021/06/12 00:56:13;;;;;;;16.15;7.35;;;;;;;19.74;66.96;101609.88;5054600;28;20721;-71
2021/06/12 00:58:43;;;;;;;11.18;6.93;;;;;;;19.67;67.53;101597.69;5046992;28;20549;-71
2021/06/12 01:01:15;;;;;;;13.77;7.97;;;;;;;19.61;67.80;101605.34;5048417;28;20423;-71
2021/06/12 01:03:40;;;;;;;16.08;8.43;;;;;;;19.59;67.93;101596.00;5044551;28;20456;-71
2021/06/12 01:06:08;;;;;;;12.88;7.32;;;;;;;19.59;67.97;101591.56;5046940;28;20033;-71
2021/06/12 01:08:34;;;;;;;14.32;7.85;;;;;;;19.56;68.31;101589.31;5043219;28;20056;-71
2021/06/12 01:10:59;;;;;;;11.05;7.32;;;;;;;19.55;68.55;101594.78;5041475;28;20021;-71
2021/06/12 01:13:43;;;;;;;15.93;8.88;;;;;;;19.53;68.63;101594.97;5061159;28;20036;-71
2021/06/12 01:16:27;;;;;;;14.65;8.77;;;;;;;19.55;68.43;101597.41;5037053;28;20057;-71
2021/06/12 01:18:54;;;;;;;16.92;7.72;;;;;;;19.57;68.43;101587.50;5047980;28;20684;-71
2021/06/12 01:21:26;;;;;;;12.52;7.53;;;;;;;19.58;68.52;101594.41;5046727;28;20067;-71
2021/06/12 01:24:24;;;;;;;16.33;8.77;;;;;;;19.59;68.41;101591.56;5038410;28;20036;-71
2021/06/12 01:26:49;;;;;;;14.73;8.63;;;;;;;19.61;68.48;101594.81;5060690;28;20029;-71
2021/06/12 01:29:28;;;;;;;14.30;9.10;;;;;;;19.64;68.55;101601.50;5038705;28;20453;-71
2021/06/12 01:31:55;;;;;;;18.45;10.15;;;;;;;19.60;68.51;101595.00;5043428;28;20029;-71
2021/06/12 01:34:22;;;;;;;15.55;8.85;;;;;;;19.60;68.69;101597.63;5047785;28;20074;-71
2021/06/12 01:36:49;;;;;;;17.50;10.10;;;;;;;19.62;68.48;101596.44;5046715;28;20044;-71
2021/06/12 01:39:19;;;;;;;18.13;10.15;;;;;;;19.62;68.64;101591.16;5043848;28;20013;-71
2021/06/12 01:41:46;;;;;;;17.10;10.18;;;;;;;19.62;68.58;101599.06;5058864;28;20482;-71
2021/06/12 01:44:12;;;;;;;21.65;10.63;;;;;;;19.55;68.97;101602.66;5039617;28;20124;-71
2021/06/12 01:46:39;;;;;;;15.65;9.30;;;;;;;19.48;69.34;101597.41;5044340;28;20531;-71
2021/06/12 01:49:06;;;;;;;18.58;10.73;;;;;;;19.45;69.20;101600.41;5060927;28;20434;-71
2021/06/12 01:51:35;;;;;;;26.92;12.73;;;;;;;19.47;69.45;101603.66;5044543;28;20120;-71
2021/06/12 01:54:01;;;;;;;21.05;11.40;;;;;;;19.46;69.58;101607.31;5045222;28;20429;-71
2021/06/12 01:56:27;;;;;;;21.27;12.98;;;;;;;19.46;69.51;101604.66;5046902;28;20052;-71
2021/06/12 01:58:53;;;;;;;19.42;10.52;;;;;;;19.47;69.47;101606.28;5042497;28;20553;-71
2021/06/12 02:01:22;;;;;;;19.98;10.38;;;;;;;19.47;69.42;101597.59;5024696;28;20371;-71
2021/06/12 02:03:48;;;;;;;20.23;10.73;;;;;;;19.45;69.40;101608.28;5045686;28;20091;-71
2021/06/12 02:06:16;;;;;;;21.35;10.80;;;;;;;19.44;69.55;101611.94;5038784;28;20559;-71
2021/06/12 02:08:44;;;;;;;17.17;10.65;;;;;;;19.40;69.46;101619.41;5045664;28;20098;-71
2021/06/12 02:11:13;;;;;;;23.40;12.38;;;;;;;19.40;69.78;101621.22;5045283;28;20124;-71
2021/06/12 02:13:40;;;;;;;21.10;12.05;;;;;;;19.37;70.17;101626.88;5042719;28;20063;-71
2021/06/12 02:16:06;;;;;;;20.13;12.15;;;;;;;19.34;70.19;101630.69;5044724;28;20039;-71
2021/06/12 02:18:32;;;;;;;15.30;9.27;;;;;;;19.30;70.38;101632.09;5044822;28;20052;-71
2021/06/12 02:20:59;;;;;;;18.05;10.70;;;;;;;19.28;70.44;101628.84;5061286;28;20033;-71
2021/06/12 02:23:27;;;;;;;18.20;10.35;;;;;;;19.28;70.24;101625.41;5059291;28;20037;-71
2021/06/12 02:25:52;;;;;;;21.38;10.70;;;;;;;19.24;70.52;101635.50;5060575;28;20029;-71
2021/06/12 02:28:20;;;;;;;20.08;10.18;;;;;;;19.22;70.55;101633.06;5043316;28;20098;-71
2021/06/12 02:31:02;;;;;;;17.83;9.38;;;;;;;19.21;70.75;101636.69;5046032;28;20017;-71
2021/06/12 02:33:29;;;;;;;22.00;10.30;;;;;;;19.26;70.71;101633.47;5037454;28;20033;-71
2021/06/12 02:35:54;;;;;;;19.40;10.43;;;;;;;19.28;70.51;101626.22;5042984;28;20021;-71
2021/06/12 02:38:21;;;;;;;16.55;9.38;;;;;;;19.28;70.25;101631.47;5041264;28;20035;-71
2021/06/12 02:40:47;;;;;;;17.65;9.07;;;;;;;19.26;70.53;101625.59;5044037;28;20025;-71
2021/06/12 02:43:13;;;;;;;16.15;9.68;;;;;;;19.24;70.34;101631.03;5060972;28;20032;-71
2021/06/12 02:45:40;;;;;;;16.90;9.18;;;;;;;19.20;70.43;101626.38;5044733;28;20235;-71
2021/06/12 02:48:13;;;;;;;13.63;8.02;;;;;;;19.18;70.37;101623.94;5038162;28;20439;-71
2021/06/12 02:50:40;;;;;;;14.38;8.57;;;;;;;19.16;70.45;101620.69;5040651;28;20095;-71
2021/06/12 02:53:07;;;;;;;11.95;7.07;;;;;;;19.16;70.01;101623.31;5042850;28;20522;-71
2021/06/12 02:55:37;;;;;;;12.60;7.60;;;;;;;19.17;70.09;101626.75;5045788;28;20707;-71
2021/06/12 02:58:03;;;;;;;18.17;8.10;;;;;;;19.16;69.84;101633.03;5045750;28;20071;-71
2021/06/12 03:00:31;;;;;;;12.32;7.40;;;;;;;19.13;69.81;101634.19;5043818;28;20020;-71
2021/06/12 03:02:56;;;;;;;17.88;8.55;;;;;;;19.06;70.22;101631.56;5043624;28;20041;-71
2021/06/12 03:05:25;;;;;;;15.07;7.80;;;;;;;19.04;70.42;101630.09;5043554;28;20677;-71
2021/06/12 03:07:53;;;;;;;14.32;6.75;;;;;;;19.02;70.29;101627.69;5044414;28;20047;-71
2021/06/12 03:10:21;;;;;;;13.57;8.13;;;;;;;19.04;70.00;101632.72;5020525;28;20048;-71
2021/06/12 03:12:48;;;;;;;12.10;6.53;;;;;;;18.93;70.64;101631.47;5043010;28;20037;-71
2021/06/12 03:15:15;;;;;;;14.63;7.60;;;;;;;18.88;70.63;101630.41;5042051;28;20064;-71
2021/06/12 03:17:44;;;;;;;12.00;6.75;;;;;;;18.83;70.78;101633.59;5043139;28;20120;-70
2021/06/12 03:20:11;;;;;;;14.77;6.93;;;;;;;18.83;70.71;101637.03;5057740;28;20098;-70
2021/06/12 03:22:38;;;;;;;11.43;6.35;;;;;;;18.84;70.52;101640.47;5040177;28;20497;-71
2021/06/12 03:25:05;;;;;;;10.50;5.70;;;;;;;18.81;70.76;101632.97;5052196;28;20561;-70
2021/06/12 03:27:31;;;;;;;11.65;5.93;;;;;;;18.79;70.81;101625.25;5058691;28;20029;-71
2021/06/12 03:29:57;;;;;;;11.88;6.18;;;;;;;18.77;70.90;101623.81;5057160;28;20063;-71
2021/06/12 03:32:24;;;;;;;10.30;5.32;;;;;;;18.76;70.59;101612.50;5059598;28;20398;-71
2021/06/12 03:34:50;;;;;;;11.95;7.00;;;;;;;18.76;70.52;101615.13;5038691;28;20273;-71
2021/06/12 03:37:17;;;;;;;9.73;5.95;;;;;;;18.74;70.82;101618.94;5041880;28;20043;-71
2021/06/12 03:39:43;;;;;;;11.02;5.97;;;;;;;18.75;70.63;101616.13;5040259;28;20036;-71
2021/06/12 03:42:09;;;;;;;11.43;6.63;;;;;;;18.71;70.89;101614.88;5047788;28;20037;-71
2021/06/12 03:44:37;;;;;;;8.88;5.47;;;;;;;18.67;71.23;101617.06;5059632;28;20078;-71
2021/06/12 03:47:03;;;;;;;15.55;7.25;;;;;;;18.67;71.06;101611.03;5040009;28;20056;-71
2021/06/12 03:49:29;;;;;;;10.50;6.22;;;;;;;18.64;71.22;101619.25;5044446;28;20061;-71
2021/06/12 03:51:55;;;;;;;9.05;6.53;;;;;;;18.62;71.39;101629.94;5044990;28;20086;-70
2021/06/12 03:54:20;;;;;;;16.17;6.85;;;;;;;18.58;71.74;101643.66;5046370;28;20051;-71
2021/06/12 03:56:46;;;;;;;14.93;7.72;;;;;;;18.57;71.75;101632.34;5048513;28;20688;-70
2021/06/12 03:59:12;;;;;;;18.05;7.68;;;;;;;18.49;72.12;101642.97;5047960;28;20035;-70
2021/06/12 04:01:38;;;;;;;9.90;6.25;;;;;;;18.47;72.15;101645.78;5041638;28;20040;-70
2021/06/12 04:04:03;;;;;;;13.10;7.45;;;;;;;18.49;72.04;101635.91;5045549;28;20065;-71
2021/06/12 04:06:29;;;;;;;9.60;5.95;;;;;;;18.46;72.28;101628.41;5048079;28;20040;-71
2021/06/12 04:08:54;;;;;;;12.38;6.40;;;;;;;18.47;72.18;101629.22;5040106;28;20382;-70
2021/06/12 04:11:20;;;;;;;9.77;4.28;;;;;;;18.47;72.18;101624.78;5048206;28;20041;-70
2021/06/12 04:13:45;;;;;;;11.30;5.07;;;;;;;18.51;72.05;101619.16;5045472;28;20026;-71
2021/06/12 04:16:12;;;;;;;11.95;5.85;;;;;;;18.52;71.99;101633.94;5046351;28;20041;-71
2021/06/12 04:18:37;;;;;;;9.43;5.78;;;;;;;18.45;72.55;101637.28;5050714;28;20048;-70
2021/06/12 04:21:04;;;;;;;12.90;6.45;;;;;;;18.39;72.61;101629.34;5048767;28;20028;-70
2021/06/12 04:23:30;;;;;;;12.38;6.43;;;;;;;18.40;72.59;101633.59;5039275;28;20033;-70
2021/06/12 04:25:56;;;;;;;10.85;6.70;;;;;;;18.37;72.42;101639.22;5047877;28;20477;-71
2021/06/12 04:28:21;;;;;;;9.68;5.65;;;;;;;18.30;73.00;101628.66;5045881;28;20107;-70
2021/06/12 04:30:47;;;;;;;9.30;5.07;;;;;;;18.27;73.10;101629.03;5043423;28;20115;-71
2021/06/12 04:33:12;;;;;;;10.00;5.88;;;;;;;18.30;73.11;101628.66;5043339;28;20044;-71
2021/06/12 04:35:37;;;;;;;9.45;5.20;;;;;;;18.31;73.10;101619.78;5047684;28;20124;-70
2021/06/12 04:38:04;;;;;;;10.65;5.45;;;;;;;18.34;73.07;101619.41;5046289;28;20044;-71
2021/06/12 04:40:32;;;;;;;7.78;5.70;;;;;;;18.38;73.10;101615.41;5044563;28;20048;-71
2021/06/12 04:42:57;;;;;;;12.52;7.70;;;;;;;18.38;73.13;101615.41;5047054;28;20071;-70
2021/06/12 04:45:23;;;;;;;12.57;6.65;;;;;;;18.38;73.28;101622.47;5044676;28;20486;-70
2021/06/12 04:47:49;;;;;;;15.05;8.43;;;;;;;18.36;73.75;101617.41;5045560;28;20382;-70
2021/06/12 04:50:15;;;;;;;13.88;8.40;;;;;;;18.40;73.54;101623.09;5047391;28;20028;-70
2021/06/12 04:52:41;;;;;;;11.20;6.50;;;;;;;18.43;73.65;101620.09;5043012;28;20036;-70
2021/06/12 04:55:09;;;;;;;13.30;8.13;;;;;;;18.36;73.74;101620.03;5048869;28;20425;-71
2021/06/12 04:57:35;;;;;;;13.35;8.30;;;;;;;18.44;73.50;101622.53;5046924;28;20401;-71
2021/06/12 05:00:00;;;;;;;20.52;9.90;;;;;;;18.40;74.08;101615.22;5036270;28;20025;-71
2021/06/12 05:02:26;;;;;;;16.23;8.95;;;;;;;18.50;73.75;101628.84;5040659;28;20049;-71
2021/06/12 05:04:51;;;;;;;14.52;8.57;;;;;;;18.39;74.19;101622.28;5045509;28;20083;-70
2021/06/12 05:07:17;;;;;;;12.93;8.30;;;;;;;18.46;74.44;101612.66;5048450;28;20033;-70
2021/06/12 05:09:42;;;;;;;17.25;8.45;;;;;;;18.46;74.03;101625.78;5046876;28;20510;-71
2021/06/12 05:12:09;;;;;;;12.25;8.15;;;;;;;18.49;73.82;101619.34;5061299;28;20506;-71
2021/06/12 05:14:34;;;;;;;13.00;8.00;;;;;;;18.58;73.11;101620.84;5048151;28;20044;-71
2021/06/12 05:17:02;;;;;;;13.60;7.93;;;;;;;18.52;72.98;101616.34;5048206;28;20033;-70
2021/06/12 05:19:28;;;;;;;13.35;6.85;;;;;;;18.56;72.65;101617.59;5061610;28;20041;-71
2021/06/12 05:21:53;;;;;;;11.60;5.97;;;;;;;18.53;72.85;101620.59;5043452;28;20122;-71
2021/06/12 05:24:19;;;;;;;8.50;5.55;;;;;;;18.58;72.64;101625.28;5062987;28;20092;-71
2021/06/12 05:26:44;;;;;;;11.52;5.70;;;;;;;18.58;72.30;101626.09;5061157;28;20091;-71
2021/06/12 05:29:10;;;;;;;9.85;5.60;;;;;;;18.53;72.16;101638.16;5044947;28;20025;-71
2021/06/12 05:31:35;;;;;;;11.85;5.35;;;;;;;18.73;71.96;101639.16;5046729;28;20500;-71
2021/06/12 05:34:01;;;;;;;9.40;5.28;;;;;;;18.99;70.85;101632.50;5046841;28;20036;-71
2021/06/12 05:36:26;;;;;;;8.55;4.70;;;;;;;19.34;69.77;101635.13;5045983;28;20520;-71
2021/06/12 05:38:52;;;;;;;10.82;4.78;;;;;;;19.59;69.01;101630.19;5044430;28;20035;-71
2021/06/12 05:41:18;;;;;;;8.73;4.97;;;;;;;19.69;68.18;101629.84;5041401;28;20190;-71
2021/06/12 05:43:43;;;;;;;7.25;4.75;;;;;;;19.90;67.58;101634.22;5046233;28;20041;-71
2021/06/12 05:46:09;;;;;;;9.60;6.05;;;;;;;20.03;66.98;101634.25;5039715;28;20040;-71
2021/06/12 05:48:34;;;;;;;13.25;6.50;;;;;;;20.23;65.62;101635.09;5043490;28;20045;-71
2021/06/12 05:51:01;;;;;;;8.25;5.75;;;;;;;20.37;65.30;101632.50;5059415;28;20108;-71
2021/06/12 05:53:26;;;;;;;13.35;6.35;;;;;;;20.19;66.55;101630.44;5044709;28;20033;-72
2021/06/12 05:55:52;;;;;;;12.32;6.78;;;;;;;20.17;66.43;101628.00;5046681;28;20079;-71
2021/06/12 05:58:18;;;;;;;11.23;7.35;;;;;;;20.08;66.38;101631.00;5046112;28;20036;-71
2021/06/12 06:00:44;;;;;;;16.73;11.27;;;;;;;20.10;66.49;101642.97;5040618;28;20048;-72
2021/06/12 06:03:10;;;;;;;22.85;13.63;;;;;;;19.80;67.46;101647.75;5041930;28;20118;-71
2021/06/12 06:05:36;;;;;;;20.88;13.32;;;;;;;19.41;68.04;101647.31;5058106;28;20108;-71
2021/06/12 06:08:02;;;;;;;21.17;13.52;;;;;;;19.54;67.98;101648.41;5067412;28;20032;-71
2021/06/12 06:10:27;;;;;;;21.25;13.80;;;;;;;19.53;68.64;101654.66;5047380;28;20056;-71
2021/06/12 06:12:53;;;;;;;18.80;12.35;;;;;;;19.81;67.29;101646.72;5044835;28;20040;-71
2021/06/12 06:15:18;;;;;;;19.67;12.77;;;;;;;19.97;67.94;101654.28;5045591;28;21287;-71
2021/06/12 06:17:43;;;;;;;21.45;14.10;;;;;;;19.80;67.65;101658.28;5043318;28;20139;-71
2021/06/12 06:20:12;;;;;;;22.83;15.95;;;;;;;19.70;67.68;101665.66;5044661;28;20086;-71
2021/06/12 06:22:38;;;;;;;20.65;14.23;;;;;;;19.84;67.49;101670.81;5046563;28;20668;-71
2021/06/12 06:25:05;;;;;;;21.20;14.73;;;;;;;19.89;67.29;101661.53;5061752;28;20124;-71
2021/06/12 06:27:31;;;;;;;19.85;14.05;;;;;;;19.93;67.36;101673.28;5042807;28;20028;-71
2021/06/12 06:29:57;;;;;;;21.15;14.82;;;;;;;19.97;67.08;101671.91;5044050;28;20040;-71
2021/06/12 06:32:22;;;;;;;25.67;16.83;;;;;;;19.84;66.61;101664.75;5058209;28;20029;-71
2021/06/12 06:34:47;;;;;;;18.98;15.02;;;;;;;19.84;66.77;101673.44;5046133;28;20036;-71
2021/06/12 06:37:13;;;;;;;21.58;14.32;;;;;;;19.64;67.67;101668.06;5034879;28;20059;-71
2021/06/12 06:39:38;;;;;;;22.27;15.40;;;;;;;19.62;67.23;101677.97;5041855;28;20036;-72
2021/06/12 06:42:05;;;;;;;23.42;13.27;;;;;;;19.77;67.11;101669.97;5044813;28;20047;-71
2021/06/12 06:44:35;;;;;;;17.10;12.85;;;;;;;19.82;67.27;101669.41;5045537;28;20048;-71
2021/06/12 06:47:01;;;;;;;15.98;11.75;;;;;;;19.92;66.67;101675.09;5031227;28;20055;-71
2021/06/12 06:49:26;;;;;;;16.63;12.15;;;;;;;19.96;66.97;101668.44;5059848;28;20025;-71
2021/06/12 06:51:52;;;;;;;17.95;11.27;;;;;;;20.20;65.39;101667.09;5045536;28;20095;-71
2021/06/12 06:54:17;;;;;;;13.70;10.35;;;;;;;20.41;65.48;101668.75;5043274;28;20021;-71
2021/06/12 06:56:42;;;;;;;18.38;11.25;;;;;;;20.34;65.20;101682.91;5045570;28;20044;-72
2021/06/12 06:59:08;;;;;;;16.27;11.73;;;;;;;20.22;65.70;101698.50;5043808;28;20060;-71
2021/06/12 07:01:36;;;;;;;16.83;10.95;;;;;;;20.20;66.40;101698.69;5043451;28;20115;-71
2021/06/12 07:04:02;;;;;;;19.45;13.35;;;;;;;20.06;66.11;101704.94;5042671;28;20257;-71
2021/06/12 07:06:27;;;;;;;20.88;14.70;;;;;;;20.04;65.87;101701.66;5042264;28;20055;-72
2021/06/12 07:08:53;;;;;;;19.02;13.77;;;;;;;19.70;66.51;101698.03;5043249;28;20147;-71
2021/06/12 07:11:18;;;;;;;21.17;13.77;;;;;;;19.70;66.92;101705.94;5043857;28;20556;-71
2021/06/12 07:13:43;;;;;;;22.40;15.25;;;;;;;19.67;67.22;101695.81;5046080;28;20091;-72
2021/06/12 07:16:09;;;;;;;23.33;15.27;;;;;;;19.60;67.42;101695.78;5045177;28;20031;-71
2021/06/12 07:18:34;;;;;;;24.10;16.38;;;;;;;19.53;67.38;101697.53;5041100;28;20738;-71
2021/06/12 07:21:00;;;;;;;21.58;15.27;;;;;;;19.60;67.27;101701.03;5045066;28;20033;-71
2021/06/12 07:23:25;;;;;;;18.02;14.57;;;;;;;19.63;67.24;101702.47;5056754;28;20125;-71
2021/06/12 07:25:52;;;;;;;24.75;15.95;;;;;;;19.67;67.24;101705.53;5060426;28;20037;-71
2021/06/12 07:28:17;;;;;;;23.17;16.48;;;;;;;19.70;66.84;101703.31;5059959;28;20409;-71
2021/06/12 07:30:43;;;;;;;21.02;15.70;;;;;;;19.88;66.91;101702.03;5041354;28;20056;-71
2021/06/12 07:33:11;;;;;;;26.92;17.23;;;;;;;20.14;65.97;101703.94;5040777;28;20029;-72
2021/06/12 07:35:37;;;;;;;21.33;15.27;;;;;;;20.30;65.89;101700.13;5041398;28;20036;-71
2021/06/12 07:38:03;;;;;;;20.35;16.35;;;;;;;20.18;64.72;101705.97;5039341;28;20115;-72
2021/06/12 07:40:30;;;;;;;22.70;16.40;;;;;;;20.03;65.96;101711.38;5041290;28;20508;-72
2021/06/12 07:42:56;;;;;;;25.15;16.67;;;;;;;20.10;65.82;101700.91;5036604;28;20084;-71
2021/06/12 07:45:22;;;;;;;21.23;17.15;;;;;;;20.09;65.87;101716.88;5043468;28;20032;-71
2021/06/12 07:47:47;;;;;;;26.55;16.92;;;;;;;20.53;65.15;101715.56;5041503;28;20480;-72
2021/06/12 07:50:14;;;;;;;23.17;15.25;;;;;;;20.57;64.59;101704.44;5043943;28;20063;-72
2021/06/12 07:52:40;;;;;;;21.65;14.00;;;;;;;20.47;64.73;101709.28;5025946;28;20449;-72
2021/06/12 07:55:06;;;;;;;21.30;16.08;;;;;;;20.39;64.74;101712.09;5056669;28;20037;-72
2021/06/12 07:57:31;;;;;;;19.80;14.75;;;;;;;20.35;65.12;101709.06;5038129;28;20033;-72
2021/06/12 07:59:57;;;;;;;27.35;16.75;;;;;;;20.05;65.60;101713.03;5043153;28;20040;-72
2021/06/12 08:02:22;;;;;;;21.85;15.23;;;;;;;19.84;65.73;101725.28;5044594;28;20047;-71
2021/06/12 08:04:48;;;;;;;19.63;14.10;;;;;;;19.88;65.35;101729.13;5041195;28;20040;-71
2021/06/12 08:07:15;;;;;;;20.45;15.43;;;;;;;19.76;65.60;101728.06;5041502;28;20036;-71
2021/06/12 08:09:40;;;;;;;21.25;15.80;;;;;;;19.59;66.55;101723.09;5042461;28;20040;-71
2021/06/12 08:12:07;;;;;;;21.15;14.38;;;;;;;19.71;65.79;101725.19;5061181;28;20060;-71
2021/06/12 08:14:32;;;;;;;20.02;14.02;;;;;;;19.59;66.19;101730.16;5042624;28;20052;-71
2021/06/12 08:16:57;;;;;;;25.67;15.57;;;;;;;19.58;67.16;101731.97;5043578;28;20052;-71
2021/06/12 08:19:23;;;;;;;22.80;16.63;;;;;;;19.42;67.63;101735.72;5038911;28;20033;-72
2021/06/12 08:21:48;;;;;;;25.15;15.38;;;;;;;19.62;67.19;101733.22;5057982;28;20207;-72
2021/06/12 08:24:14;;;;;;;22.02;16.02;;;;;;;19.71;67.43;101726.00;5042029;28;20352;-71
2021/06/12 08:26:40;;;;;;;21.27;15.98;;;;;;;19.62;68.33;101729.78;5059417;28;20037;-71
2021/06/12 08:29:05;;;;;;;22.85;17.35;;;;;;;19.47;69.44;101723.81;5042699;28;20131;-71
2021/06/12 08:31:34;;;;;;;20.60;15.32;;;;;;;19.50;69.60;101732.13;5041484;28;20112;-71
2021/06/12 08:34:00;;;;;;;24.80;16.90;;;;;;;19.51;69.34;101728.50;5039372;28;20076;-71
2021/06/12 08:36:25;;;;;;;25.42;16.50;;;;;;;19.50;68.43;101715.56;5036074;28;20052;-71
2021/06/12 08:38:51;;;;;;;27.55;18.08;;;;;;;19.63;68.69;101724.31;5029548;28;20505;-71
2021/06/12 08:41:16;;;;;;;27.13;18.50;;;;;;;19.64;68.13;101722.50;5061214;28;20017;-71
2021/06/12 08:43:42;;;;;;;26.58;17.52;;;;;;;19.79;67.53;101727.66;5039746;28;20034;-71
2021/06/12 08:46:07;;;;;;;24.88;17.98;;;;;;;19.97;67.52;101735.88;5059169;28;20079;-71
2021/06/12 08:48:34;;;;;;;26.08;19.23;;;;;;;20.47;66.61;101719.81;5041779;28;20067;-71
2021/06/12 08:51:00;;;;;;;22.10;17.65;;;;;;;21.04;64.34;101722.13;5042271;28;20124;-71
2021/06/12 08:53:27;;;;;;;25.52;15.95;;;;;;;21.51;62.02;101725.56;5044857;28;20120;-71
2021/06/12 08:55:53;;;;;;;22.17;16.45;;;;;;;22.14;61.41;101714.38;5036591;28;20041;-71
2021/06/12 08:58:19;;;;;;;26.08;17.02;;;;;;;22.49;59.36;101724.56;5042581;28;20036;-72
2021/06/12 09:00:45;;;;;;;23.77;15.95;;;;;;;22.56;59.13;101722.69;5042145;28;20513;-72
2021/06/12 09:03:17;;;;;;;21.98;15.57;;;;;;;22.42;58.29;101727.25;5042401;28;20060;-72
2021/06/12 09:05:50;;;;;;;23.48;16.80;;;;;;;22.60;58.32;101733.66;5033430;28;20036;-72
2021/06/12 09:08:18;;;;;;;26.13;15.82;;;;;;;22.50;58.70;101728.84;5039090;28;20082;-72
2021/06/12 09:10:47;;;;;;;20.83;14.88;;;;;;;22.64;59.68;101725.09;5040484;28;20067;-72
2021/06/12 09:13:13;;;;;;;23.42;17.23;;;;;;;22.67;58.31;101724.66;5034158;28;20506;-72
2021/06/12 09:15:38;;;;;;;23.50;16.27;;;;;;;22.28;58.77;101723.06;5044605;28;20112;-72
2021/06/12 09:18:04;;;;;;;23.88;16.23;;;;;;;22.44;58.59;101725.22;5045649;28;20025;-72
2021/06/12 09:20:29;;;;;;;25.67;16.67;;;;;;;22.46;58.07;101736.38;5036257;28;20037;-73
2021/06/12 09:23:16;;;;;;;21.27;14.40;;;;;;;22.44;58.64;101735.00;5043335;28;20078;-72
2021/06/12 09:25:44;;;;;;;20.33;14.25;;;;;;;22.32;58.82;101740.09;5042650;28;20041;-72
2021/06/12 09:28:10;;;;;;;22.85;16.85;;;;;;;22.19;59.37;101737.50;5046724;28;20112;-72
2021/06/12 09:30:36;;;;;;;23.48;15.70;;;;;;;22.12;59.25;101738.34;5046239;28;20123;-72
2021/06/12 09:33:02;;;;;;;23.33;16.88;;;;;;;22.21;59.60;101741.56;5045298;28;20279;-72
2021/06/12 09:35:38;;;;;;;24.23;16.08;;;;;;;22.13;59.42;101745.28;5041380;28;20481;-72
2021/06/12 09:38:28;;;;;;;23.27;17.63;;;;;;;22.11;60.35;101744.69;5039050;28;20029;-72
2021/06/12 09:40:54;;;;;;;30.58;18.83;;;;;;;21.99;59.03;101751.63;5033842;28;20026;-72
2021/06/12 09:43:27;;;;;;;24.15;15.73;;;;;;;22.14;59.37;101757.44;5045303;28;20032;-72
2021/06/12 09:45:53;;;;;;;31.15;18.95;;;;;;;22.05;59.41;101753.41;5038752;28;20135;-72
2021/06/12 09:48:19;;;;;;;27.35;18.08;;;;;;;21.92;60.22;101759.53;5047049;28;20104;-72
2021/06/12 09:50:47;;;;;;;26.70;17.77;;;;;;;21.95;59.95;101755.69;5063366;28;20474;-72
2021/06/12 09:53:37;;;;;;;23.27;16.02;;;;;;;22.19;59.67;101756.81;5043727;28;20093;-72
2021/06/12 09:56:09;;;;;;;26.80;18.25;;;;;;;22.23;59.81;101754.56;5041154;28;20037;-72
2021/06/12 09:58:35;;;;;;;29.17;18.27;;;;;;;22.21;58.99;101754.78;5045391;28;20037;-72
2021/06/12 10:01:08;;;;;;;27.95;17.33;;;;;;;22.12;59.18;101758.69;5042668;28;21068;-72
2021/06/12 10:03:33;;;;;;;29.15;19.10;;;;;;;21.86;59.00;101759.59;5045711;28;20041;-71
2021/06/12 10:06:15;;;;;;;27.60;19.20;;;;;;;21.59;59.98;101759.66;5046920;28;20401;-72
2021/06/12 10:08:42;;;;;;;28.95;19.05;;;;;;;21.42;59.65;101769.78;5046164;28;20033;-71
2021/06/12 10:11:08;;;;;;;35.25;20.83;;;;;;;21.35;60.40;101771.63;5046101;28;20064;-71
2021/06/12 10:13:33;;;;;;;29.27;18.85;;;;;;;21.31;60.70;101770.41;5059274;28;20118;-71
2021/06/12 10:16:00;;;;;;;30.10;18.80;;;;;;;21.62;60.98;101768.97;5043583;28;20025;-71
2021/06/12 10:18:26;;;;;;;31.95;19.75;;;;;;;21.74;61.38;101770.78;5060461;28;20036;-71
2021/06/12 10:20:53;;;;;;;31.63;19.02;;;;;;;21.76;60.51;101767.94;5040488;28;20035;-72
2021/06/12 10:23:18;;;;;;;31.58;19.08;;;;;;;21.75;58.80;101768.94;5040928;28;20035;-71
2021/06/12 10:25:45;;;;;;;31.77;19.55;;;;;;;21.85;59.05;101776.44;5059169;28;20036;-71
2021/06/12 10:28:10;;;;;;;33.25;19.25;;;;;;;21.75;59.51;101775.03;5043053;28;21780;-70
2021/06/12 10:30:37;;;;;;;32.40;20.33;;;;;;;21.99;58.63;101772.75;5044552;28;20044;-71
2021/06/12 10:33:03;;;;;;;32.42;21.20;;;;;;;21.88;59.12;101774.19;5060613;28;20041;-72
2021/06/12 10:35:29;;;;;;;31.08;19.65;;;;;;;21.94;59.04;101778.66;5062205;28;20452;-71
2021/06/12 10:38:02;;;;;;;32.13;20.17;;;;;;;21.87;59.25;101769.94;5045467;28;20033;-71
2021/06/12 10:40:41;;;;;;;32.47;18.92;;;;;;;21.69;59.91;101780.34;5043793;28;20056;-71
2021/06/12 10:43:09;;;;;;;33.33;20.30;;;;;;;21.87;59.21;101771.75;5043238;28;20147;-72
2021/06/12 10:45:34;;;;;;;36.83;21.60;;;;;;;21.99;59.14;101759.53;5058720;28;20041;-72
2021/06/12 10:48:00;;;;;;;30.48;19.50;;;;;;;22.21;58.33;101748.66;5020026;28;20036;-72
2021/06/12 10:50:25;;;;;;;33.90;20.33;;;;;;;22.59;58.76;101758.47;5061180;28;20777;-72
2021/06/12 10:52:52;;;;;;;30.88;18.88;;;;;;;23.03;57.39;101748.78;5042261;28;20052;-71
2021/06/12 10:55:56;;;;;;;31.95;19.83;;;;;;;23.31;56.23;101753.66;5041815;28;20494;-71
2021/06/12 10:58:34;;;;;;;36.72;20.20;;;;;;;23.52;54.99;101753.25;5042100;28;20033;-71
2021/06/12 11:01:05;;;;;;;25.73;17.08;;;;;;;23.59;54.78;101755.84;5044552;28;20047;-71
2021/06/12 11:06:35;;;;;;;26.65;17.27;;;;;;;23.29;55.69;101748.59;5044214;28;20087;-71
2021/06/12 11:09:13;;;;;;;32.22;20.48;;;;;;;23.02;54.27;101752.44;5042362;28;20159;-71
2021/06/12 11:11:40;;;;;;;33.30;20.13;;;;;;;22.55;54.84;101756.25;5039628;28;20093;-71
2021/06/12 11:14:24;;;;;;;32.42;19.88;;;;;;;22.51;55.96;101759.53;5042201;28;20037;-71
2021/06/12 11:17:04;;;;;;;28.63;18.63;;;;;;;22.57;57.05;101750.75;5037177;28;20489;-71
2021/06/12 11:19:31;;;;;;;28.83;18.77;;;;;;;22.70;57.01;101763.09;5043582;28;20603;-71